Time;durP1;ratioP1;P1;durP2;ratioP2;P2;SDS_P1;SDS_P2;PMS_P1;PMS_P2;Temp;Humidity;BMP_temperature;BMP_pressure;BME280_temperature;BME280_humidity;BME280_pressure;Samples;Min_cycle;Max_cycle;Signal;HPM_P1;HPM_P2
2022/12/19 00:00:45;;;;;;;19.73;16.80;;;;;;;;;;5116054;28;20563;-49
2022/12/19 00:03:11;;;;;;;17.77;14.20;;;;;;;;;;5116529;28;20055;-51
2022/12/19 00:05:38;;;;;;;24.03;18.10;;;;;;;;;;5117103;28;20470;-51
2022/12/19 00:08:04;;;;;;;18.23;14.73;;;;;;;;;;5116072;28;20047;-54
2022/12/19 00:10:30;;;;;;;23.73;16.13;;;;;;;;;;5115783;28;20093;-55
2022/12/19 00:12:56;;;;;;;28.27;17.70;;;;;;;;;;5116323;28;20036;-55
2022/12/19 00:15:22;;;;;;;23.80;13.23;;;;;;;;;;5116385;28;20165;-55
2022/12/19 00:17:48;;;;;;;24.07;17.13;;;;;;;;;;5116044;28;20020;-56
2022/12/19 00:20:14;;;;;;;21.43;17.83;;;;;;;;;;5116220;28;20035;-54
2022/12/19 00:22:40;;;;;;;25.67;16.17;;;;;;;;;;5115837;28;20027;-55
2022/12/19 00:25:06;;;;;;;27.47;16.57;;;;;;;;;;5098407;28;20461;-50
2022/12/19 00:27:35;;;;;;;23.47;17.20;;;;;;;;;;5115700;28;20115;-50
2022/12/19 00:30:01;;;;;;;25.20;17.47;;;;;;;;;;5098077;28;20032;-53
2022/12/19 00:32:27;;;;;;;23.93;15.07;;;;;;;;;;5115689;28;20067;-55
2022/12/19 00:34:53;;;;;;;24.73;19.03;;;;;;;;;;5116048;28;20034;-56
2022/12/19 00:37:19;;;;;;;27.80;16.93;;;;;;;;;;5115926;28;20027;-55
2022/12/19 00:39:45;;;;;;;21.13;17.10;;;;;;;;;;5115584;28;20029;-55
2022/12/19 00:42:11;;;;;;;21.13;15.13;;;;;;;;;;5115519;28;20449;-53
2022/12/19 00:44:37;;;;;;;20.47;15.43;;;;;;;;;;5115543;28;20380;-54
2022/12/19 00:47:03;;;;;;;28.63;19.57;;;;;;;;;;5115387;28;20031;-55
2022/12/19 00:49:29;;;;;;;15.67;14.07;;;;;;;;;;5115919;28;20097;-54
2022/12/19 00:51:56;;;;;;;24.17;14.33;;;;;;;;;;5115208;28;20020;-56
2022/12/19 00:54:22;;;;;;;20.03;17.23;;;;;;;;;;5115693;28;20043;-55
2022/12/19 00:56:48;;;;;;;20.63;14.83;;;;;;;;;;5115185;28;20114;-54
2022/12/19 00:59:14;;;;;;;20.20;13.87;;;;;;;;;;5115450;28;20062;-54
2022/12/19 01:01:40;;;;;;;16.50;14.90;;;;;;;;;;5114959;28;20088;-54
2022/12/19 01:04:07;;;;;;;23.43;16.60;;;;;;;;;;5115617;28;20411;-55
2022/12/19 01:06:34;;;;;;;14.97;12.73;;;;;;;;;;5115025;28;20434;-53
2022/12/19 01:09:00;;;;;;;23.43;16.17;;;;;;;;;;5115004;28;20051;-52
2022/12/19 01:14:12;;;;;;;20.37;15.90;;;;;;;;;;5115005;28;20482;-53
2022/12/19 01:16:37;;;;;;;27.37;16.67;;;;;;;;;;5097412;28;20028;-54
2022/12/19 01:19:03;;;;;;;24.40;17.07;;;;;;;;;;5115138;28;20028;-54
2022/12/19 01:21:29;;;;;;;27.43;19.27;;;;;;;;;;5115048;28;20034;-56
2022/12/19 01:23:55;;;;;;;22.17;15.73;;;;;;;;;;5115558;28;20110;-55
2022/12/19 01:26:21;;;;;;;23.03;17.67;;;;;;;;;;5114716;28;20074;-53
2022/12/19 01:28:47;;;;;;;20.33;15.27;;;;;;;;;;5114340;28;20028;-56
2022/12/19 01:31:13;;;;;;;19.00;16.40;;;;;;;;;;5115421;28;20494;-55
2022/12/19 01:33:39;;;;;;;20.23;14.77;;;;;;;;;;5114989;28;20028;-55
2022/12/19 01:36:06;;;;;;;17.40;15.60;;;;;;;;;;5115150;28;20019;-53
2022/12/19 01:38:32;;;;;;;25.77;15.93;;;;;;;;;;5114616;28;20072;-53
2022/12/19 01:40:58;;;;;;;22.37;16.50;;;;;;;;;;5114350;28;20053;-52
2022/12/19 01:43:25;;;;;;;25.57;19.07;;;;;;;;;;5114396;28;20023;-54
2022/12/19 01:45:57;;;;;;;19.50;16.97;;;;;;;;;;5114471;28;20095;-53
2022/12/19 01:48:26;;;;;;;22.23;18.20;;;;;;;;;;5115191;28;20108;-56
2022/12/19 01:50:59;;;;;;;20.77;16.60;;;;;;;;;;5114352;28;20365;-53
2022/12/19 01:53:27;;;;;;;24.77;17.37;;;;;;;;;;5114116;28;20103;-55
2022/12/19 01:55:53;;;;;;;17.27;14.37;;;;;;;;;;5114490;28;20019;-56
2022/12/19 01:58:20;;;;;;;19.30;16.70;;;;;;;;;;5114244;28;20035;-53
2022/12/19 02:00:46;;;;;;;23.47;17.27;;;;;;;;;;5114364;28;20058;-53
2022/12/19 02:03:18;;;;;;;20.60;15.93;;;;;;;;;;5114432;28;20138;-52
2022/12/19 02:05:44;;;;;;;20.07;17.90;;;;;;;;;;5114253;28;20051;-53
2022/12/19 02:08:11;;;;;;;18.77;15.67;;;;;;;;;;5114680;28;20027;-53
2022/12/19 02:10:37;;;;;;;27.20;17.27;;;;;;;;;;5113849;28;20468;-55
2022/12/19 02:13:03;;;;;;;21.27;18.90;;;;;;;;;;5113997;28;20035;-53
2022/12/19 02:15:31;;;;;;;19.37;17.00;;;;;;;;;;5114423;28;20026;-55
2022/12/19 02:18:04;;;;;;;22.93;16.97;;;;;;;;;;5114327;28;20037;-56
2022/12/19 02:20:58;;;;;;;23.83;19.53;;;;;;;;;;5114821;28;20133;-53
2022/12/19 02:23:24;;;;;;;21.87;17.70;;;;;;;;;;5114276;28;20063;-54
2022/12/19 02:25:58;;;;;;;20.80;15.43;;;;;;;;;;5114320;28;20024;-53
2022/12/19 02:28:44;;;;;;;23.43;17.73;;;;;;;;;;5114301;28;20042;-55
2022/12/19 02:31:10;;;;;;;22.10;17.90;;;;;;;;;;5114007;28;20095;-55
2022/12/19 02:33:41;;;;;;;20.60;15.53;;;;;;;;;;5113703;28;20118;-54
2022/12/19 02:36:12;;;;;;;30.13;20.73;;;;;;;;;;5114509;28;20043;-56
2022/12/19 02:38:47;;;;;;;26.20;18.13;;;;;;;;;;5113879;28;20105;-52
2022/12/19 02:41:26;;;;;;;18.10;16.23;;;;;;;;;;5114490;28;20035;-54
2022/12/19 02:43:54;;;;;;;22.67;17.63;;;;;;;;;;5114172;28;20034;-57
2022/12/19 02:46:21;;;;;;;19.43;15.93;;;;;;;;;;5113763;28;20020;-56
2022/12/19 02:48:47;;;;;;;20.50;15.23;;;;;;;;;;5113709;28;20032;-55
2022/12/19 02:51:13;;;;;;;20.13;16.47;;;;;;;;;;5114975;28;20024;-56
2022/12/19 02:53:39;;;;;;;19.00;14.90;;;;;;;;;;5117503;28;20031;-54
2022/12/19 02:56:05;;;;;;;24.87;16.83;;;;;;;;;;5117837;28;20457;-55
2022/12/19 02:58:43;;;;;;;20.30;18.20;;;;;;;;;;5117583;28;20030;-55
2022/12/19 03:01:35;;;;;;;25.93;18.27;;;;;;;;;;5117617;28;20030;-54
2022/12/19 03:04:01;;;;;;;22.73;16.33;;;;;;;;;;5113916;28;20067;-53
2022/12/19 03:06:33;;;;;;;31.00;18.07;;;;;;;;;;5117407;28;20081;-54
2022/12/19 03:09:07;;;;;;;19.53;14.53;;;;;;;;;;5117035;28;20108;-57
2022/12/19 03:11:35;;;;;;;24.93;14.70;;;;;;;;;;5117627;28;20028;-54
2022/12/19 03:14:15;;;;;;;22.40;16.73;;;;;;;;;;5117218;28;20080;-50
2022/12/19 03:16:41;;;;;;;21.58;15.27;;;;;;;;;;5117546;28;20103;-56
2022/12/19 03:19:08;;;;;;;22.10;16.80;;;;;;;;;;5117985;28;20411;-50
2022/12/19 03:21:36;;;;;;;24.87;16.20;;;;;;;;;;5116786;28;20559;-55
2022/12/19 03:24:03;;;;;;;24.40;17.73;;;;;;;;;;5117421;28;20031;-51
2022/12/19 03:26:33;;;;;;;21.73;16.57;;;;;;;;;;5116976;28;20034;-51
2022/12/19 03:29:08;;;;;;;18.67;15.20;;;;;;;;;;5117596;28;20038;-51
2022/12/19 03:31:36;;;;;;;19.60;16.47;;;;;;;;;;5116941;28;20073;-51
2022/12/19 03:34:06;;;;;;;19.03;15.20;;;;;;;;;;5116947;28;20380;-51
2022/12/19 03:36:42;;;;;;;22.97;15.20;;;;;;;;;;5117134;28;20028;-52
2022/12/19 03:39:09;;;;;;;31.33;18.00;;;;;;;;;;5116580;28;20031;-52
2022/12/19 03:44:22;;;;;;;21.30;16.83;;;;;;;;;;5117021;28;20100;-52
2022/12/19 03:46:52;;;;;;;19.73;17.13;;;;;;;;;;5116636;28;20024;-52
2022/12/19 03:49:17;;;;;;;23.57;19.00;;;;;;;;;;5116466;28;20019;-51
2022/12/19 03:51:47;;;;;;;20.53;16.97;;;;;;;;;;5116227;28;20019;-50
2022/12/19 03:54:31;;;;;;;18.30;15.00;;;;;;;;;;5116781;28;20031;-50
2022/12/19 03:57:10;;;;;;;21.77;16.57;;;;;;;;;;5116669;28;20410;-52
2022/12/19 03:59:39;;;;;;;23.47;13.43;;;;;;;;;;5116707;28;20377;-50
2022/12/19 04:02:06;;;;;;;25.92;16.83;;;;;;;;;;5115928;28;20385;-51
2022/12/19 04:04:35;;;;;;;19.70;14.93;;;;;;;;;;5116269;28;20111;-50
2022/12/19 04:07:02;;;;;;;16.33;14.17;;;;;;;;;;5116499;28;20035;-50
2022/12/19 04:09:29;;;;;;;19.20;16.93;;;;;;;;;;5116530;28;20028;-49
2022/12/19 04:11:59;;;;;;;16.73;13.73;;;;;;;;;;5116122;28;20048;-52
2022/12/19 04:14:28;;;;;;;19.58;14.15;;;;;;;;;;5116106;28;20465;-52
2022/12/19 04:17:02;;;;;;;24.60;13.80;;;;;;;;;;5115922;28;20028;-51
2022/12/19 04:19:38;;;;;;;20.17;16.67;;;;;;;;;;5115985;28;20472;-55
2022/12/19 04:22:07;;;;;;;19.03;13.63;;;;;;;;;;5115799;28;20023;-55
2022/12/19 04:24:34;;;;;;;15.77;12.77;;;;;;;;;;5116578;28;20433;-54
2022/12/19 04:27:02;;;;;;;20.20;15.60;;;;;;;;;;5115575;28;20474;-55
2022/12/19 04:29:30;;;;;;;19.43;17.43;;;;;;;;;;5116091;28;20019;-55
2022/12/19 04:31:56;;;;;;;20.17;16.33;;;;;;;;;;5115750;28;20023;-53
2022/12/19 04:34:22;;;;;;;18.23;14.73;;;;;;;;;;5116039;28;20480;-54
2022/12/19 04:36:48;;;;;;;24.77;14.73;;;;;;;;;;5116001;28;20023;-50
2022/12/19 04:39:14;;;;;;;22.70;14.03;;;;;;;;;;5115668;28;20028;-52
2022/12/19 04:41:40;;;;;;;20.23;16.53;;;;;;;;;;5116193;28;20455;-54
2022/12/19 04:44:06;;;;;;;21.17;16.37;;;;;;;;;;5115948;28;20076;-54
2022/12/19 04:46:32;;;;;;;17.90;15.57;;;;;;;;;;5115901;28;20035;-50
2022/12/19 04:48:58;;;;;;;27.17;18.43;;;;;;;;;;5115134;28;20023;-52
2022/12/19 04:51:24;;;;;;;20.87;16.40;;;;;;;;;;5115015;28;20106;-53
2022/12/19 04:53:50;;;;;;;19.57;14.73;;;;;;;;;;5115661;28;20480;-51
2022/12/19 04:56:16;;;;;;;23.03;15.67;;;;;;;;;;5115237;28;20485;-54
2022/12/19 04:58:42;;;;;;;21.27;14.13;;;;;;;;;;5115020;28;20039;-54
2022/12/19 05:01:08;;;;;;;22.60;15.77;;;;;;;;;;5114951;28;20059;-56
2022/12/19 05:03:35;;;;;;;13.33;11.97;;;;;;;;;;5114955;28;20523;-55
2022/12/19 05:06:08;;;;;;;22.77;13.70;;;;;;;;;;5115368;28;20411;-57
2022/12/19 05:08:35;;;;;;;17.97;13.13;;;;;;;;;;5115093;28;20107;-56
2022/12/19 05:11:02;;;;;;;22.40;16.13;;;;;;;;;;5115059;28;20023;-55
2022/12/19 05:13:29;;;;;;;18.83;14.30;;;;;;;;;;5114659;28;20038;-57
2022/12/19 05:15:58;;;;;;;24.97;15.00;;;;;;;;;;5115412;28;20027;-55
2022/12/19 05:18:24;;;;;;;22.03;15.70;;;;;;;;;;5115525;28;20031;-54
2022/12/19 05:20:50;;;;;;;17.80;15.13;;;;;;;;;;5115384;28;20034;-52
2022/12/19 05:23:16;;;;;;;17.30;13.53;;;;;;;;;;5115147;28;20031;-52
2022/12/19 05:25:42;;;;;;;17.73;14.23;;;;;;;;;;5115291;28;20024;-53
2022/12/19 05:28:07;;;;;;;24.03;17.10;;;;;;;;;;5115011;28;20027;-56
2022/12/19 05:30:33;;;;;;;21.27;15.87;;;;;;;;;;5114726;28;20427;-57
2022/12/19 05:33:00;;;;;;;17.17;15.27;;;;;;;;;;5114650;28;20032;-57
2022/12/19 05:35:26;;;;;;;19.17;16.67;;;;;;;;;;5114686;28;20031;-59
2022/12/19 05:37:52;;;;;;;23.17;17.53;;;;;;;;;;5114632;28;20020;-55
2022/12/19 05:40:18;;;;;;;23.43;19.30;;;;;;;;;;5114978;28;20080;-57
2022/12/19 05:42:44;;;;;;;21.43;16.77;;;;;;;;;;5114154;28;20106;-56
2022/12/19 05:45:10;;;;;;;24.43;17.40;;;;;;;;;;5114531;28;20024;-55
2022/12/19 05:47:36;;;;;;;22.73;18.20;;;;;;;;;;5114685;28;20098;-54
2022/12/19 05:50:02;;;;;;;19.90;15.73;;;;;;;;;;5114626;28;20059;-55
2022/12/19 05:52:28;;;;;;;17.27;15.40;;;;;;;;;;5114410;28;20026;-57
2022/12/19 05:54:54;;;;;;;24.73;17.83;;;;;;;;;;5115182;28;20025;-56
2022/12/19 05:57:20;;;;;;;23.30;18.67;;;;;;;;;;5114260;28;20457;-55
2022/12/19 05:59:46;;;;;;;17.30;15.50;;;;;;;;;;5096286;28;20027;-57
2022/12/19 06:02:11;;;;;;;35.37;19.73;;;;;;;;;;5114288;28;20081;-57
2022/12/19 06:04:37;;;;;;;19.30;16.73;;;;;;;;;;5114231;28;20028;-57
2022/12/19 06:07:04;;;;;;;30.43;17.10;;;;;;;;;;5114231;28;20024;-57
2022/12/19 06:09:30;;;;;;;22.77;16.83;;;;;;;;;;5114692;28;20445;-58
2022/12/19 06:11:56;;;;;;;21.70;17.37;;;;;;;;;;5114487;28;20031;-56
2022/12/19 06:14:22;;;;;;;23.87;16.97;;;;;;;;;;5114908;28;20433;-53
2022/12/19 06:16:48;;;;;;;20.67;17.67;;;;;;;;;;5114130;28;20055;-55
2022/12/19 06:19:14;;;;;;;25.77;19.63;;;;;;;;;;5113829;28;20081;-57
2022/12/19 06:21:40;;;;;;;24.33;16.30;;;;;;;;;;5114360;28;20446;-57
2022/12/19 06:24:06;;;;;;;19.27;16.10;;;;;;;;;;5113625;28;20472;-56
2022/12/19 06:26:32;;;;;;;20.30;15.53;;;;;;;;;;5117039;28;20023;-54
2022/12/19 06:29:01;;;;;;;21.30;17.23;;;;;;;;;;5118364;28;20108;-55
2022/12/19 06:31:27;;;;;;;21.00;14.63;;;;;;;;;;5118537;28;20024;-58
2022/12/19 06:33:54;;;;;;;20.63;18.43;;;;;;;;;;5117776;28;20053;-56
2022/12/19 06:36:24;;;;;;;25.90;17.60;;;;;;;;;;5118239;28;20043;-55
2022/12/19 06:38:50;;;;;;;22.92;17.58;;;;;;;;;;5117137;28;20441;-58
2022/12/19 06:44:01;;;;;;;19.93;15.37;;;;;;;;;;5117770;28;20030;-54
2022/12/19 06:46:28;;;;;;;22.50;17.37;;;;;;;;;;5117599;28;20027;-57
2022/12/19 06:48:54;;;;;;;17.77;14.00;;;;;;;;;;5099297;28;20026;-56
2022/12/19 06:51:20;;;;;;;27.63;16.40;;;;;;;;;;5117433;28;20377;-56
2022/12/19 06:53:46;;;;;;;17.50;14.73;;;;;;;;;;5117523;28;20059;-55
2022/12/19 06:56:13;;;;;;;20.20;16.57;;;;;;;;;;5117428;28;20112;-54
2022/12/19 06:58:39;;;;;;;23.20;17.93;;;;;;;;;;5117407;28;20024;-55
2022/12/19 07:01:05;;;;;;;20.43;13.60;;;;;;;;;;5117483;28;20072;-56
2022/12/19 07:03:35;;;;;;;29.33;19.00;;;;;;;;;;5118289;28;20052;-56
2022/12/19 07:06:02;;;;;;;24.58;17.38;;;;;;;;;;5117737;28;20095;-54
2022/12/19 07:08:29;;;;;;;23.67;16.97;;;;;;;;;;5117648;28;20461;-55
2022/12/19 07:10:55;;;;;;;22.10;15.57;;;;;;;;;;5117349;28;20028;-55
2022/12/19 07:13:21;;;;;;;30.53;17.27;;;;;;;;;;5116907;28;20473;-56
2022/12/19 07:15:47;;;;;;;26.27;20.10;;;;;;;;;;5117439;28;20024;-56
2022/12/19 07:18:13;;;;;;;26.57;18.83;;;;;;;;;;5117133;28;20045;-56
2022/12/19 07:20:41;;;;;;;23.23;15.80;;;;;;;;;;5117104;28;20023;-57
2022/12/19 07:23:07;;;;;;;19.97;17.17;;;;;;;;;;5116990;28;20108;-56
2022/12/19 07:25:33;;;;;;;22.67;17.77;;;;;;;;;;5116951;28;20026;-55
2022/12/19 07:27:59;;;;;;;25.30;20.07;;;;;;;;;;5116953;28;20024;-56
2022/12/19 07:30:25;;;;;;;33.93;18.50;;;;;;;;;;5116497;28;20019;-57
2022/12/19 07:32:51;;;;;;;36.27;19.13;;;;;;;;;;5116738;28;20034;-58
2022/12/19 07:35:17;;;;;;;30.03;16.27;;;;;;;;;;5117044;28;20020;-57
2022/12/19 07:37:43;;;;;;;36.33;18.00;;;;;;;;;;5115729;28;20028;-56
2022/12/19 07:40:10;;;;;;;18.43;16.50;;;;;;;;;;5098357;28;20089;-57
2022/12/19 07:42:36;;;;;;;20.17;15.60;;;;;;;;;;5116409;28;20062;-58
2022/12/19 07:45:05;;;;;;;17.50;15.77;;;;;;;;;;5116140;28;20067;-58
2022/12/19 07:47:31;;;;;;;24.40;16.53;;;;;;;;;;5116439;28;20027;-57
2022/12/19 07:49:57;;;;;;;19.03;14.57;;;;;;;;;;5115767;28;20027;-57
2022/12/19 07:52:23;;;;;;;25.73;18.73;;;;;;;;;;5116163;28;20068;-58
2022/12/19 07:54:49;;;;;;;19.47;15.70;;;;;;;;;;5116548;28;20024;-57
2022/12/19 07:57:15;;;;;;;19.47;16.00;;;;;;;;;;5117058;28;20077;-53
2022/12/19 07:59:41;;;;;;;22.67;16.50;;;;;;;;;;5116263;28;20559;-55
2022/12/19 08:02:07;;;;;;;25.27;16.33;;;;;;;;;;5116386;28;20056;-58
2022/12/19 08:04:33;;;;;;;23.03;14.70;;;;;;;;;;5116421;28;20088;-57
2022/12/19 08:06:59;;;;;;;15.10;12.30;;;;;;;;;;5116419;28;20032;-56
2022/12/19 08:09:26;;;;;;;23.53;14.83;;;;;;;;;;5116497;28;20467;-56
2022/12/19 08:11:53;;;;;;;19.80;13.93;;;;;;;;;;5116185;28;20063;-57
2022/12/19 08:14:19;;;;;;;19.70;14.70;;;;;;;;;;5116173;28;20028;-55
2022/12/19 08:16:45;;;;;;;19.27;15.33;;;;;;;;;;5116423;28;20026;-57
2022/12/19 08:19:11;;;;;;;24.53;15.57;;;;;;;;;;5116399;28;20361;-56
2022/12/19 08:21:37;;;;;;;18.27;15.87;;;;;;;;;;5098417;28;20023;-57
2022/12/19 08:24:03;;;;;;;27.90;18.03;;;;;;;;;;5116298;28;20085;-56
2022/12/19 08:26:29;;;;;;;22.10;17.73;;;;;;;;;;5115711;28;20477;-56
2022/12/19 08:28:56;;;;;;;22.80;17.47;;;;;;;;;;5115899;28;20024;-57
2022/12/19 08:31:23;;;;;;;24.07;16.23;;;;;;;;;;5115768;28;20023;-58
2022/12/19 08:33:50;;;;;;;19.30;14.50;;;;;;;;;;5115631;28;20032;-57
2022/12/19 08:36:19;;;;;;;22.73;15.50;;;;;;;;;;5115474;28;20131;-57
2022/12/19 08:38:46;;;;;;;17.70;10.90;;;;;;;;;;5115928;28;20027;-55
2022/12/19 08:41:13;;;;;;;20.27;14.17;;;;;;;;;;5116138;28;20047;-57
2022/12/19 08:43:39;;;;;;;16.70;13.23;;;;;;;;;;5116029;28;20035;-58
2022/12/19 08:46:05;;;;;;;15.27;13.00;;;;;;;;;;5115617;28;20070;-59
2022/12/19 08:48:32;;;;;;;16.07;11.97;;;;;;;;;;5115336;28;20368;-58
2022/12/19 08:51:01;;;;;;;17.03;13.07;;;;;;;;;;5115216;28;20028;-58
2022/12/19 08:53:29;;;;;;;19.88;11.43;;;;;;;;;;5097171;28;20031;-59
2022/12/19 08:55:56;;;;;;;12.40;11.10;;;;;;;;;;5115756;28;20411;-58
2022/12/19 08:58:22;;;;;;;19.47;11.90;;;;;;;;;;5115118;28;20144;-57
2022/12/19 09:00:48;;;;;;;17.17;13.27;;;;;;;;;;5115270;28;20089;-59
2022/12/19 09:03:14;;;;;;;14.90;12.97;;;;;;;;;;5115738;28;20051;-58
2022/12/19 09:05:40;;;;;;;16.93;11.77;;;;;;;;;;5115894;28;20046;-58
2022/12/19 09:08:07;;;;;;;16.37;11.40;;;;;;;;;;5115177;28;20463;-59
2022/12/19 09:10:35;;;;;;;19.27;11.30;;;;;;;;;;5114906;28;20110;-59
2022/12/19 09:13:01;;;;;;;21.87;15.30;;;;;;;;;;5114889;28;20063;-59
2022/12/19 09:15:27;;;;;;;16.80;13.83;;;;;;;;;;5115190;28;20020;-58
2022/12/19 09:17:53;;;;;;;15.07;12.77;;;;;;;;;;5114955;28;20027;-59
2022/12/19 09:20:20;;;;;;;13.00;11.63;;;;;;;;;;5114892;28;20057;-57
2022/12/19 09:22:46;;;;;;;19.47;12.07;;;;;;;;;;5115440;28;20110;-59
2022/12/19 09:25:12;;;;;;;25.07;15.03;;;;;;;;;;5115044;28;20153;-59
2022/12/19 09:27:38;;;;;;;17.93;12.57;;;;;;;;;;5114591;28;20028;-58
2022/12/19 09:30:04;;;;;;;21.60;13.37;;;;;;;;;;5115197;28;20027;-58
2022/12/19 09:32:30;;;;;;;18.50;12.03;;;;;;;;;;5115111;28;20027;-58
2022/12/19 09:34:56;;;;;;;23.63;12.17;;;;;;;;;;5114526;28;20058;-58
2022/12/19 09:37:22;;;;;;;14.53;11.77;;;;;;;;;;5114414;28;20024;-59
2022/12/19 09:39:48;;;;;;;17.17;14.97;;;;;;;;;;5114536;28;20024;-58
2022/12/19 09:42:33;;;;;;;18.50;13.77;;;;;;;;;;5114550;28;20055;-55
2022/12/19 09:45:07;;;;;;;14.53;11.67;;;;;;;;;;5114464;28;20031;-59
2022/12/19 09:47:33;;;;;;;18.25;13.02;;;;;;;;;;5114345;28;20073;-59
2022/12/19 09:50:01;;;;;;;23.90;14.47;;;;;;;;;;5114255;28;20097;-59
2022/12/19 09:52:37;;;;;;;22.30;13.67;;;;;;;;;;5114752;28;20041;-56
2022/12/19 09:55:21;;;;;;;16.63;12.48;;;;;;;;;;5095796;28;20055;-58
2022/12/19 09:58:17;;;;;;;25.27;13.63;;;;;;;;;;5114320;28;20049;-58
2022/12/19 10:00:44;;;;;;;16.33;12.70;;;;;;;;;;5096176;28;20119;-56
2022/12/19 10:03:27;;;;;;;18.40;12.90;;;;;;;;;;5114154;28;20043;-59
2022/12/19 10:06:12;;;;;;;21.30;15.38;;;;;;;;;;5114474;28;20080;-58
2022/12/19 10:08:38;;;;;;;16.67;14.10;;;;;;;;;;5114454;28;20106;-58
2022/12/19 10:11:09;;;;;;;15.95;12.00;;;;;;;;;;5114054;28;20524;-58
2022/12/19 10:13:54;;;;;;;16.15;13.48;;;;;;;;;;5114473;28;20032;-55
2022/12/19 10:16:33;;;;;;;21.52;14.98;;;;;;;;;;5114538;28;20059;-56
2022/12/19 10:19:05;;;;;;;30.08;14.43;;;;;;;;;;5114077;28;20024;-58
2022/12/19 10:21:32;;;;;;;19.25;15.02;;;;;;;;;;5113882;28;20039;-58
2022/12/19 10:24:17;;;;;;;16.30;12.10;;;;;;;;;;5096368;28;20031;-58
2022/12/19 10:26:43;;;;;;;14.43;10.98;;;;;;;;;;5114040;28;20377;-58
2022/12/19 10:29:18;;;;;;;15.75;10.63;;;;;;;;;;5114538;28;20019;-57
2022/12/19 10:32:06;;;;;;;12.93;10.82;;;;;;;;;;5114514;28;20461;-58
2022/12/19 10:34:42;;;;;;;13.55;10.18;;;;;;;;;;5114036;28;20055;-58
2022/12/19 10:37:25;;;;;;;15.48;9.68;;;;;;;;;;5114471;28;20031;-56
2022/12/19 10:39:54;;;;;;;13.90;11.30;;;;;;;;;;5113772;28;20537;-57
2022/12/19 10:42:31;;;;;;;16.08;10.95;;;;;;;;;;5114056;28;20504;-57
2022/12/19 10:44:58;;;;;;;13.13;8.93;;;;;;;;;;5114268;28;20036;-57
2022/12/19 10:47:24;;;;;;;16.08;9.48;;;;;;;;;;5113699;28;20099;-58
2022/12/19 10:49:50;;;;;;;19.85;11.10;;;;;;;;;;5113516;28;20032;-58
2022/12/19 10:52:36;;;;;;;15.43;10.50;;;;;;;;;;5113708;28;20035;-58
2022/12/19 10:55:02;;;;;;;17.95;10.05;;;;;;;;;;5114525;28;20100;-58
2022/12/19 10:57:28;;;;;;;14.73;11.50;;;;;;;;;;5113974;28;20060;-59
2022/12/19 11:00:08;;;;;;;18.02;11.50;;;;;;;;;;5114285;28;20158;-58
2022/12/19 11:02:41;;;;;;;13.57;10.45;;;;;;;;;;5113281;28;20127;-58
2022/12/19 11:05:21;;;;;;;13.35;9.02;;;;;;;;;;5114346;28;20046;-58
2022/12/19 11:08:05;;;;;;;13.85;10.63;;;;;;;;;;5113727;28;20028;-59
2022/12/19 11:10:41;;;;;;;16.20;11.35;;;;;;;;;;5113679;28;20032;-58
2022/12/19 11:13:25;;;;;;;14.35;10.40;;;;;;;;;;5115949;28;20035;-58
2022/12/19 11:15:53;;;;;;;15.98;12.02;;;;;;;;;;5117902;28;20053;-58
2022/12/19 11:18:19;;;;;;;21.35;12.75;;;;;;;;;;5117224;28;20457;-57
2022/12/19 11:20:55;;;;;;;13.95;11.65;;;;;;;;;;5117795;28;20030;-58
2022/12/19 11:23:22;;;;;;;12.25;9.95;;;;;;;;;;5099656;28;20024;-57
2022/12/19 11:25:53;;;;;;;22.15;13.15;;;;;;;;;;5117070;28;20105;-59
2022/12/19 11:28:21;;;;;;;15.68;10.88;;;;;;;;;;5117164;28;20031;-58
2022/12/19 11:31:02;;;;;;;15.95;11.13;;;;;;;;;;5117194;28;20027;-56
2022/12/19 11:33:28;;;;;;;16.95;12.45;;;;;;;;;;5117006;28;20350;-58
2022/12/19 11:35:57;;;;;;;16.42;12.15;;;;;;;;;;5116866;28;20106;-56
2022/12/19 11:38:38;;;;;;;16.40;12.30;;;;;;;;;;5116774;28;20023;-58
2022/12/19 11:41:10;;;;;;;23.52;12.48;;;;;;;;;;5117040;28;20361;-57
2022/12/19 11:43:36;;;;;;;21.58;12.18;;;;;;;;;;5117022;28;20031;-56
2022/12/19 11:46:09;;;;;;;15.48;12.90;;;;;;;;;;5117088;28;20076;-58
2022/12/19 11:48:38;;;;;;;15.90;12.07;;;;;;;;;;5117205;28;20032;-57
2022/12/19 11:51:22;;;;;;;17.35;11.55;;;;;;;;;;5116650;28;20042;-56
2022/12/19 11:54:12;;;;;;;14.35;10.95;;;;;;;;;;5116532;28;20067;-55
2022/12/19 11:56:38;;;;;;;19.53;11.47;;;;;;;;;;5105889;28;20051;-57
2022/12/19 11:59:13;;;;;;;18.70;12.05;;;;;;;;;;5116703;28;20261;-57
2022/12/19 12:01:41;;;;;;;15.93;11.13;;;;;;;;;;5116557;28;20101;-57
2022/12/19 12:04:26;;;;;;;17.45;12.43;;;;;;;;;;5116270;28;20451;-57
2022/12/19 12:06:53;;;;;;;20.67;13.00;;;;;;;;;;5116052;28;20110;-58
2022/12/19 12:09:22;;;;;;;17.08;13.40;;;;;;;;;;5115180;28;20397;-58
2022/12/19 12:11:47;;;;;;;18.58;12.90;;;;;;;;;;5114914;28;20107;-58
2022/12/19 12:14:21;;;;;;;16.20;13.60;;;;;;;;;;5115531;28;20075;-57
2022/12/19 12:16:57;;;;;;;19.77;13.65;;;;;;;;;;5115369;28;20028;-57
2022/12/19 12:19:23;;;;;;;19.58;14.00;;;;;;;;;;5114793;28;20106;-55
2022/12/19 12:22:09;;;;;;;16.67;12.32;;;;;;;;;;5114404;28;20445;-56
2022/12/19 12:24:35;;;;;;;15.48;12.63;;;;;;;;;;5072395;28;20043;-57
2022/12/19 12:27:20;;;;;;;19.15;13.07;;;;;;;;;;5114684;28;20024;-57
2022/12/19 12:30:09;;;;;;;19.50;12.32;;;;;;;;;;5115024;28;20031;-56
2022/12/19 12:32:35;;;;;;;12.63;10.27;;;;;;;;;;5116171;28;20112;-56
2022/12/19 12:35:04;;;;;;;19.10;11.70;;;;;;;;;;5115716;28;20098;-57
2022/12/19 12:37:48;;;;;;;16.10;11.85;;;;;;;;;;5115414;28;20034;-57
2022/12/19 12:40:21;;;;;;;21.20;12.45;;;;;;;;;;5115735;28;20023;-57
2022/12/19 12:42:58;;;;;;;17.00;11.98;;;;;;;;;;5116164;28;20430;-57
2022/12/19 12:45:40;;;;;;;17.77;13.50;;;;;;;;;;5115619;28;20024;-57
2022/12/19 12:48:24;;;;;;;16.88;13.57;;;;;;;;;;5115616;28;20052;-55
2022/12/19 12:50:51;;;;;;;15.55;11.52;;;;;;;;;;5115293;28;20414;-57
2022/12/19 12:53:18;;;;;;;16.45;12.80;;;;;;;;;;5115412;28;20019;-57
2022/12/19 12:55:45;;;;;;;17.08;11.93;;;;;;;;;;5116017;28;20020;-57
2022/12/19 12:58:30;;;;;;;20.45;13.60;;;;;;;;;;5115353;28;20030;-56
2022/12/19 13:01:16;;;;;;;22.42;14.15;;;;;;;;;;5115644;28;20092;-56
2022/12/19 13:03:43;;;;;;;21.90;11.35;;;;;;;;;;5075102;28;20064;-56
2022/12/19 13:06:12;;;;;;;14.55;11.35;;;;;;;;;;5074840;28;20028;-57
2022/12/19 13:08:48;;;;;;;14.32;11.77;;;;;;;;;;5074533;28;20028;-56
2022/12/19 13:14:34;;;;;;;23.40;14.10;;;;;;;;;;5074766;28;20035;-58
2022/12/19 13:17:01;;;;;;;16.98;13.43;;;;;;;;;;5074384;28;20031;-57
2022/12/19 13:19:29;;;;;;;24.35;13.38;;;;;;;;;;5074355;28;20056;-58
2022/12/19 13:22:18;;;;;;;19.33;14.35;;;;;;;;;;5074156;28;20100;-57
2022/12/19 13:24:44;;;;;;;21.05;15.75;;;;;;;;;;5071004;28;20036;-57
2022/12/19 13:27:30;;;;;;;26.60;18.00;;;;;;;;;;5074066;28;20035;-56
2022/12/19 13:30:02;;;;;;;20.27;16.10;;;;;;;;;;5074449;28;20032;-57
2022/12/19 13:32:40;;;;;;;25.35;16.17;;;;;;;;;;5074896;28;20024;-57
2022/12/19 13:35:09;;;;;;;27.08;18.13;;;;;;;;;;5073858;28;20036;-57
2022/12/19 13:37:39;;;;;;;21.33;17.23;;;;;;;;;;5074569;28;20023;-57
2022/12/19 13:40:11;;;;;;;24.35;19.20;;;;;;;;;;5073966;28;20036;-57
2022/12/19 13:45:30;;;;;;;18.48;16.48;;;;;;;;;;5074225;28;20472;-58
2022/12/19 13:47:57;;;;;;;25.13;16.63;;;;;;;;;;5073987;28;20042;-58
2022/12/19 13:50:30;;;;;;;20.95;14.85;;;;;;;;;;5073794;28;20451;-57
2022/12/19 13:52:55;;;;;;;20.85;14.15;;;;;;;;;;5073649;28;20148;-57
2022/12/19 13:55:22;;;;;;;18.10;14.00;;;;;;;;;;5074126;28;20056;-56
2022/12/19 13:57:51;;;;;;;17.73;12.15;;;;;;;;;;5073684;28;20033;-57
2022/12/19 14:00:19;;;;;;;18.00;13.07;;;;;;;;;;5073744;28;20048;-58
2022/12/19 14:02:48;;;;;;;15.30;11.57;;;;;;;;;;5101035;28;20092;-58
2022/12/19 14:05:45;;;;;;;14.35;12.50;;;;;;;;;;5114834;28;20052;-57
2022/12/19 14:08:15;;;;;;;16.85;13.15;;;;;;;;;;5097204;28;20036;-57
2022/12/19 14:10:43;;;;;;;15.25;11.27;;;;;;;;;;5114151;28;20027;-58
2022/12/19 14:15:58;;;;;;;17.25;12.80;;;;;;;;;;5114532;28;20096;-57
2022/12/19 14:18:26;;;;;;;15.70;11.55;;;;;;;;;;5114502;28;20024;-57
2022/12/19 14:21:07;;;;;;;17.60;11.93;;;;;;;;;;5114126;28;20028;-57
2022/12/19 14:23:33;;;;;;;14.38;11.60;;;;;;;;;;5114572;28;20055;-57
2022/12/19 14:25:59;;;;;;;15.25;10.57;;;;;;;;;;5114817;28;20069;-57
2022/12/19 14:28:30;;;;;;;20.23;12.85;;;;;;;;;;5114456;28;20400;-57
2022/12/19 14:30:58;;;;;;;16.70;11.93;;;;;;;;;;5114511;28;20109;-58
2022/12/19 14:33:50;;;;;;;13.75;11.40;;;;;;;;;;5114281;28;20484;-55
2022/12/19 14:36:20;;;;;;;13.95;11.30;;;;;;;;;;5110724;28;20039;-57
2022/12/19 14:38:47;;;;;;;16.70;11.25;;;;;;;;;;5114286;28;20499;-58
2022/12/19 14:43:37;;;;;;;15.32;11.25;;;;;;;;;;5114471;28;20326;-57
2022/12/19 14:44:04;;;;;;;16.55;12.52;;;;;;;;;;5114378;28;20063;-57
2022/12/19 14:46:33;;;;;;;18.30;11.63;;;;;;;;;;5115894;28;20477;-58